createdAt,value
2018-10-03T01:05:42.384Z,10.6
2018-10-03T01:05:52.907Z,10.6
2018-10-03T01:06:42.975Z,10.5
2018-10-03T01:07:33.017Z,10.6
2018-10-03T01:08:22.711Z,10.6
2018-10-03T01:09:13.053Z,10.5
2018-10-03T01:10:02.851Z,10.5
2018-10-03T01:10:53.398Z,10.6
2018-10-03T01:11:43.241Z,10.5
2018-10-03T01:12:33.294Z,10.6
2018-10-03T01:13:23.366Z,10.6
2018-10-03T01:14:13.145Z,10.6
2018-10-03T01:15:03.493Z,10.6
2018-10-03T01:15:53.563Z,10.6
2018-10-03T01:16:43.609Z,10.6
2018-10-03T01:17:33.684Z,10.6
2018-10-03T01:18:23.450Z,10.6
2018-10-03T01:19:13.231Z,10.6
2018-10-03T01:20:03.595Z,10.6
2018-10-03T01:20:53.630Z,10.6
2018-10-03T01:21:43.984Z,10.6
2018-10-03T01:22:34.080Z,10.6
2018-10-03T01:23:24.112Z,10.6
2018-10-03T01:24:13.898Z,10.6
2018-10-03T01:25:04.229Z,10.6
2018-10-03T01:25:54.020Z,10.6
2018-10-03T01:26:44.379Z,10.6
2018-10-03T01:27:34.416Z,10.6
2018-10-03T01:28:24.525Z,10.6
2018-10-03T01:29:14.540Z,10.6
2018-10-03T01:30:04.594Z,10.6
2018-10-03T01:30:54.392Z,10.6
2018-10-03T01:31:44.716Z,10.6
2018-10-03T01:32:34.784Z,10.6
2018-10-03T01:33:24.559Z,10.6
2018-10-03T01:34:14.622Z,10.6
2018-10-03T01:35:04.985Z,10.6
2018-10-03T01:35:55.025Z,10.6
2018-10-03T01:36:45.097Z,10.6
2018-10-03T01:37:35.154Z,10.6
2018-10-03T01:38:25.615Z,10.6
2018-10-03T01:39:14.998Z,10.6
2018-10-03T01:40:05.345Z,10.6
2018-10-03T01:40:55.396Z,10.6
2018-10-03T01:41:45.461Z,10.6
2018-10-03T01:42:35.505Z,10.6
2018-10-03T01:43:25.594Z,10.6
2018-10-03T01:44:15.469Z,10.6
2018-10-03T01:45:05.725Z,10.6
2018-10-03T01:45:55.480Z,10.6
2018-10-03T01:46:45.841Z,10.6
2018-10-03T01:47:35.906Z,10.7
2018-10-03T01:48:25.949Z,10.6
2018-10-03T01:49:15.727Z,10.7
2018-10-03T01:50:06.071Z,10.7
2018-10-03T01:50:56.135Z,10.7
2018-10-03T01:51:46.205Z,10.7
2018-10-03T01:52:35.984Z,10.7
2018-10-03T01:53:26.332Z,10.6
2018-10-03T01:54:16.403Z,10.7
2018-10-03T01:55:06.416Z,10.7
2018-10-03T01:55:56.522Z,10.7
2018-10-03T01:56:46.303Z,10.7
2018-10-03T01:57:36.638Z,10.7
2018-10-03T01:58:26.718Z,10.7
2018-10-03T01:59:16.478Z,10.7
2018-10-03T02:00:07.088Z,10.7
2018-10-03T02:00:56.880Z,10.7
2018-10-03T02:01:46.973Z,10.7
2018-10-03T02:02:37.005Z,10.7
2018-10-03T02:03:27.082Z,10.7
2018-10-03T02:04:17.147Z,10.7
2018-10-03T02:05:06.908Z,10.7
2018-10-03T02:05:56.987Z,10.7
2018-10-03T02:06:47.044Z,10.7
2018-10-03T02:07:37.391Z,10.7
2018-10-03T02:08:27.149Z,10.7
2018-10-03T02:09:17.213Z,10.7
2018-10-03T02:10:07.571Z,10.7
2018-10-03T02:10:57.619Z,10.7
2018-10-03T02:11:47.681Z,10.7
2018-10-03T02:12:37.752Z,10.7
2018-10-03T02:13:27.830Z,10.8
2018-10-03T02:14:17.891Z,10.8
2018-10-03T02:15:07.667Z,10.7
2018-10-03T02:15:57.725Z,10.7
2018-10-03T02:16:48.054Z,10.7
2018-10-03T02:17:38.158Z,10.7
2018-10-03T02:18:27.926Z,10.7
2018-10-03T02:19:18.277Z,10.8
2018-10-03T02:20:08.023Z,10.7
2018-10-03T02:20:58.379Z,10.8
2018-10-03T02:21:48.427Z,10.7
2018-10-03T02:22:38.505Z,10.8
2018-10-03T02:23:28.604Z,10.8
2018-10-03T02:24:18.622Z,10.8
2018-10-03T02:25:08.682Z,10.8
2018-10-03T02:25:58.748Z,10.8
2018-10-03T02:26:48.244Z,10.8
2018-10-03T02:27:38.867Z,10.8
2018-10-03T02:28:28.356Z,10.8
2018-10-03T02:29:19.001Z,10.8
2018-10-03T02:30:08.487Z,10.8
2018-10-03T02:30:59.189Z,10.8
2018-10-03T02:31:49.171Z,10.8
2018-10-03T02:32:39.249Z,10.8
2018-10-03T02:33:29.291Z,10.8
2018-10-03T02:34:19.086Z,10.8
2018-10-03T02:35:09.131Z,10.8
2018-10-03T02:35:59.210Z,10.8
2018-10-03T02:36:49.556Z,10.8
2018-10-03T02:37:39.321Z,10.8
2018-10-03T02:38:29.660Z,10.8
2018-10-03T02:39:19.732Z,10.8
2018-10-03T02:40:09.794Z,10.8
2018-10-03T02:40:59.849Z,10.8
2018-10-03T02:41:49.348Z,10.8
2018-10-03T02:42:39.980Z,10.8
2018-10-03T02:43:30.035Z,10.8
2018-10-03T02:44:19.825Z,10.8
2018-10-03T02:45:10.167Z,10.8
2018-10-03T02:46:00.305Z,10.8
2018-10-03T02:46:50.298Z,10.8
2018-10-03T02:47:40.067Z,10.8
2018-10-03T02:48:30.403Z,10.8
2018-10-03T02:49:20.198Z,10.8
2018-10-03T02:50:10.540Z,10.8
2018-10-03T02:51:00.600Z,10.8
2018-10-03T02:51:50.650Z,10.8
2018-10-03T02:52:40.722Z,10.8
2018-10-03T02:53:30.793Z,10.8
2018-10-03T02:54:20.837Z,10.8
2018-10-03T02:55:10.910Z,10.8
2018-10-03T02:56:00.965Z,10.8
2018-10-03T02:56:51.016Z,10.8
2018-10-03T02:57:40.793Z,10.8
2018-10-03T02:58:31.182Z,10.8
2018-10-03T02:59:20.924Z,10.8
2018-10-03T03:00:11.317Z,10.8
2018-10-03T03:01:01.326Z,10.8
2018-10-03T03:01:51.232Z,10.8
2018-10-03T03:02:41.172Z,10.8
2018-10-03T03:03:31.519Z,10.8
2018-10-03T03:04:21.607Z,10.8
2018-10-03T03:05:11.651Z,10.8
2018-10-03T03:06:01.432Z,10.8
2018-10-03T03:06:51.761Z,10.8
2018-10-03T03:07:41.844Z,10.7
2018-10-03T03:08:32.516Z,10.7
2018-10-03T03:09:21.697Z,10.8
2018-10-03T03:10:12.020Z,10.8
2018-10-03T03:11:01.787Z,10.8
2018-10-03T03:11:52.143Z,10.8
2018-10-03T03:12:41.934Z,10.8
2018-10-03T03:13:32.251Z,10.8
2018-10-03T03:14:22.326Z,10.8
2018-10-03T03:15:12.382Z,10.8
2018-10-03T03:16:02.544Z,10.8
2018-10-03T03:16:52.528Z,10.8
2018-10-03T03:17:42.591Z,10.7
2018-10-03T03:18:32.354Z,10.8
2018-10-03T03:19:22.695Z,10.7
2018-10-03T03:20:12.466Z,10.7
2018-10-03T03:21:02.546Z,10.7
2018-10-03T03:21:52.886Z,10.7
2018-10-03T03:22:42.662Z,10.7
2018-10-03T03:23:33.021Z,10.7
2018-10-03T03:24:23.076Z,10.8
2018-10-03T03:25:13.150Z,10.7
2018-10-03T03:26:03.828Z,10.7
2018-10-03T03:26:53.248Z,10.7
2018-10-03T03:27:43.305Z,10.8
2018-10-03T03:28:33.438Z,10.7
2018-10-03T03:29:23.425Z,10.7
2018-10-03T03:30:13.508Z,10.7
2018-10-03T03:31:03.565Z,10.7
2018-10-03T03:31:53.368Z,10.7
2018-10-03T03:32:43.697Z,10.7
2018-10-03T03:33:33.753Z,10.7
2018-10-03T03:34:23.800Z,10.7
2018-10-03T03:35:13.870Z,10.7
2018-10-03T03:36:03.945Z,10.7
2018-10-03T03:36:53.129Z,10.7
2018-10-03T03:37:44.045Z,10.7
2018-10-03T03:38:33.851Z,10.7
2018-10-03T03:39:24.187Z,10.7
2018-10-03T03:40:14.557Z,10.6
2018-10-03T03:41:04.294Z,10.7
2018-10-03T03:41:54.356Z,10.6
2018-10-03T03:42:44.629Z,10.6
2018-10-03T03:43:34.227Z,10.6
2018-10-03T03:44:24.273Z,10.6
2018-10-03T03:45:14.644Z,10.6
2018-10-03T03:46:04.929Z,10.7
2018-10-03T03:46:54.747Z,10.6
2018-10-03T03:47:44.789Z,10.6
2018-10-03T03:48:34.876Z,10.6
2018-10-03T03:49:24.908Z,10.6
2018-10-03T03:50:14.981Z,10.6
2018-10-03T03:51:05.049Z,10.6
2018-10-03T03:51:55.095Z,10.6
2018-10-03T03:52:45.184Z,10.6
2018-10-03T03:53:35.001Z,10.6
2018-10-03T03:54:25.271Z,10.6
2018-10-03T03:55:15.101Z,10.6
2018-10-03T03:56:05.136Z,10.6
2018-10-03T03:56:55.472Z,10.6
2018-10-03T03:57:45.527Z,10.6
2018-10-03T03:58:35.306Z,10.6
2018-10-03T03:59:25.674Z,10.6
2018-10-03T04:00:15.717Z,10.6
2018-10-03T04:01:05.791Z,10.6
2018-10-03T04:01:55.559Z,10.5
2018-10-03T04:02:45.905Z,10.6
2018-10-03T04:03:35.969Z,10.5
2018-10-03T04:04:26.036Z,10.5
2018-10-03T04:05:16.103Z,10.5
2018-10-03T04:06:06.165Z,10.5
2018-10-03T04:06:55.956Z,10.5
2018-10-03T04:07:46.268Z,10.5
2018-10-03T04:08:36.357Z,10.5
2018-10-03T04:09:25.834Z,10.5
2018-10-03T04:10:16.208Z,10.5
2018-10-03T04:11:06.290Z,10.5
2018-10-03T04:11:56.301Z,10.5
2018-10-03T04:12:46.636Z,10.5
2018-10-03T04:13:36.151Z,10.5
2018-10-03T04:14:26.785Z,10.4
2018-10-03T04:15:16.875Z,10.4
2018-10-03T04:16:06.918Z,10.4
2018-10-03T04:16:56.673Z,10.4
2018-10-03T04:17:46.440Z,10.4
2018-10-03T04:18:37.089Z,10.4
2018-10-03T04:19:27.157Z,10.4
2018-10-03T04:20:17.234Z,10.4
2018-10-03T04:21:06.987Z,10.4
2018-10-03T04:21:57.566Z,10.4
2018-10-03T04:22:47.390Z,10.4
2018-10-03T04:23:37.448Z,10.4
2018-10-03T04:24:27.230Z,10.4
2018-10-03T04:25:17.622Z,10.4
2018-10-03T04:26:07.059Z,10.4
2018-10-03T04:26:57.407Z,10.4
2018-10-03T04:27:47.775Z,10.4
2018-10-03T04:28:37.822Z,10.4
2018-10-03T04:29:27.875Z,10.4
2018-10-03T04:30:17.934Z,10.3
2018-10-03T04:31:07.739Z,10.3
2018-10-03T04:31:58.050Z,10.3
2018-10-03T04:32:48.164Z,10.3
2018-10-03T04:33:38.177Z,10.3
2018-10-03T04:34:28.251Z,10.3
2018-10-03T04:35:18.309Z,10.3
2018-10-03T04:36:08.386Z,10.3
2018-10-03T04:54:31.829Z,10.1
2018-10-03T04:55:21.630Z,10.1
2018-10-03T04:56:11.401Z,10.1
2018-10-03T04:57:01.502Z,10.1
2018-10-03T04:57:51.259Z,10.1
2018-10-03T04:58:41.582Z,10.1
2018-10-03T04:59:32.239Z,10.1
2018-10-03T05:00:21.486Z,10.1
2018-10-03T05:01:11.763Z,10.1
2018-10-03T05:02:01.824Z,10.1
2018-10-03T05:02:51.883Z,10.1
2018-10-03T05:03:41.674Z,10.1
2018-10-03T05:04:32.905Z,10.1
2018-10-03T05:05:22.360Z,10.1
2018-10-03T05:06:12.145Z,10.1
2018-10-03T05:07:02.403Z,10.1
2018-10-03T05:07:52.528Z,10.1
2018-10-03T05:08:42.628Z,10.1
2018-10-03T05:09:32.091Z,10.1
2018-10-03T05:10:22.978Z,10.1
2018-10-03T05:11:12.562Z,10.1
2018-10-03T05:12:02.852Z,10.1
2018-10-03T05:12:52.643Z,10.1
2018-10-03T05:13:42.965Z,10.1
2018-10-03T05:14:33.032Z,10.1
2018-10-03T05:15:22.825Z,10.1
2018-10-03T05:16:12.868Z,10.1
2018-10-03T05:17:03.213Z,10.2
2018-10-03T05:17:53.272Z,10.2
2018-10-03T05:18:43.060Z,10.2
2018-10-03T05:19:33.412Z,10.2
2018-10-03T05:20:23.185Z,10.2
2018-10-03T05:21:13.535Z,10.3
2018-10-03T05:22:03.604Z,10.2
2018-10-03T05:22:53.686Z,10.2
2018-10-03T05:23:43.746Z,10.3
2018-10-03T05:24:33.792Z,10.3
2018-10-03T05:25:23.555Z,10.3
2018-10-03T05:26:13.892Z,10.3
2018-10-03T05:27:03.697Z,10.3
2018-10-03T05:27:53.658Z,10.3
2018-10-03T05:28:43.810Z,10.3
2018-10-03T05:29:34.131Z,10.4
2018-10-03T05:30:24.222Z,10.4
2018-10-03T05:31:14.254Z,10.4
2018-10-03T05:32:04.336Z,10.4
2018-10-03T05:32:53.532Z,10.4
2018-10-03T05:33:43.894Z,10.5
2018-10-03T05:34:34.502Z,10.5
2018-10-03T05:35:24.851Z,10.6
2018-10-03T05:36:14.635Z,10.6
2018-10-03T05:37:04.736Z,10.6
2018-10-03T05:37:54.770Z,10.6
2018-10-03T05:38:44.841Z,10.6
2018-10-03T05:39:35.176Z,10.7
2018-10-03T05:40:25.220Z,10.7
2018-10-03T05:41:15.003Z,10.8
2018-10-03T05:42:04.776Z,10.8
2018-10-03T05:42:54.838Z,10.9
2018-10-03T05:43:45.185Z,10.9
2018-10-03T05:44:35.266Z,10.9
2018-10-03T05:45:25.338Z,11
2018-10-03T05:46:15.153Z,11.1
2018-10-03T05:47:05.433Z,11.1
2018-10-03T05:47:55.210Z,11.3
2018-10-03T05:48:45.804Z,11.3
2018-10-03T05:49:35.592Z,11.4
2018-10-03T05:50:25.453Z,11.5
2018-10-03T05:51:15.449Z,11.6
2018-10-03T05:52:05.810Z,11.8
2018-10-03T05:52:55.872Z,11.9
2018-10-03T05:53:45.683Z,12
2018-10-03T05:54:36.157Z,12.1
2018-10-03T05:55:26.057Z,12.3
2018-10-03T05:56:15.833Z,12.5
2018-10-03T05:57:06.168Z,12.7
2018-10-03T05:57:55.977Z,12.9
2018-10-03T05:58:46.292Z,13.1
2018-10-03T05:59:36.354Z,13.2
2018-10-03T06:00:26.140Z,13.4
2018-10-03T06:01:16.501Z,13.6
2018-10-03T06:02:05.992Z,13.7
2018-10-03T06:02:56.541Z,13.9
2018-10-03T06:03:46.667Z,14
2018-10-03T06:04:36.459Z,14.2
2018-10-03T06:05:26.512Z,14.3
2018-10-03T06:06:16.865Z,14.5
2018-10-03T06:07:06.647Z,14.6
2018-10-03T06:07:56.708Z,14.8
2018-10-03T06:08:47.047Z,14.9
2018-10-03T06:09:37.093Z,15
2018-10-03T06:10:27.177Z,15.1
2018-10-03T06:11:16.944Z,15.3
2018-10-03T06:12:07.353Z,15.4
2018-10-03T06:12:57.057Z,15.5
2018-10-03T06:13:47.406Z,15.6
2018-10-03T06:14:37.472Z,15.8
2018-10-03T06:15:27.527Z,15.9
2018-10-03T06:16:17.592Z,16.1
2018-10-03T06:17:07.378Z,16.3
2018-10-03T06:17:57.726Z,16.4
2018-10-03T06:18:48.206Z,16.6
2018-10-03T06:19:37.295Z,16.8
2018-10-03T06:21:17.418Z,17.2
2018-10-03T06:22:07.472Z,17.4
2018-10-03T06:22:58.092Z,17.6
2018-10-03T06:23:47.301Z,17.8
2018-10-03T06:24:37.656Z,18.1
2018-10-03T06:25:27.727Z,18.3
2018-10-03T06:26:18.078Z,18.5
2018-10-03T06:27:07.852Z,18.8
2018-10-03T06:27:58.753Z,19
2018-10-03T06:28:48.549Z,19.3
2018-10-03T06:29:38.328Z,19.5
2018-10-03T06:30:28.368Z,19.8
2018-10-03T06:31:18.441Z,20
2018-10-03T06:32:08.496Z,20.3
2018-10-03T06:32:58.855Z,20.5
2018-10-03T06:33:48.609Z,20.8
2018-10-03T06:34:38.681Z,15.7
2018-10-03T06:35:28.731Z,17.4
2018-10-03T06:36:19.061Z,36.8
2018-10-03T06:37:09.138Z,40.3
2018-10-03T06:37:58.944Z,40.4
2018-10-03T06:38:48.996Z,40.1
2018-10-03T06:39:38.756Z,39.2
2018-10-03T06:40:29.779Z,38.5
2018-10-03T06:41:19.480Z,37.9
2018-10-03T06:42:09.774Z,37.6
2018-10-03T06:42:59.565Z,37.3
2018-10-03T06:43:49.360Z,37
2018-10-03T06:44:39.692Z,36.8
2018-10-03T06:45:29.882Z,36.6
2018-10-03T06:46:19.531Z,36.4
2018-10-03T06:47:09.618Z,36.3
2018-10-03T06:47:59.674Z,36.2
2018-10-03T06:48:49.991Z,36.1
2018-10-03T06:49:40.059Z,35.9
2018-10-03T06:50:30.125Z,35.9
2018-10-03T06:51:19.908Z,35.8
2018-10-03T06:52:10.543Z,35.7
2018-10-03T06:53:00.318Z,35.6
2018-10-03T06:53:50.385Z,36.8
2018-10-03T06:54:40.425Z,39.6
2018-10-03T06:55:30.485Z,44.6
2018-10-03T06:56:20.556Z,45
2018-10-03T06:57:10.904Z,47
2018-10-03T06:58:00.108Z,48.4
2018-10-03T06:58:50.738Z,48.6
2018-10-03T06:59:40.800Z,47.9
2018-10-03T07:00:30.863Z,47.5
2018-10-03T07:01:20.982Z,47.5
2018-10-03T07:02:10.984Z,47.8
2018-10-03T07:03:00.768Z,48.1
2018-10-03T07:03:50.831Z,48.4
2018-10-03T07:04:40.885Z,48.6
2018-10-03T07:05:31.225Z,48.8
2018-10-03T07:06:21.288Z,48.8
2018-10-03T07:07:11.372Z,48.9
2018-10-03T07:08:01.430Z,48.9
2018-10-03T07:08:51.474Z,49.1
2018-10-03T07:09:41.550Z,49.3
2018-10-03T07:10:31.607Z,49.4
2018-10-03T07:11:21.660Z,49.4
2018-10-03T07:12:11.452Z,49.3
2018-10-03T07:13:01.936Z,49.3
2018-10-03T07:13:51.865Z,49.1
2018-10-03T07:14:41.924Z,49.1
2018-10-03T07:15:31.732Z,49.1
2018-10-03T07:16:22.034Z,49.3
2018-10-03T07:17:12.099Z,49.6
2018-10-03T07:18:01.888Z,49.9
2018-10-03T07:18:52.531Z,50.1
2018-10-03T07:19:42.287Z,50.2
2018-10-03T07:20:32.056Z,50.3
2018-10-03T07:21:22.514Z,50.4
2018-10-03T07:22:12.179Z,50.6
2018-10-03T07:23:02.524Z,50.8
2018-10-03T07:23:52.593Z,50.9
2018-10-03T07:24:42.648Z,51
2018-10-03T07:25:32.449Z,51.1
2018-10-03T07:26:22.802Z,51.2
2018-10-03T07:27:12.861Z,51.3
2018-10-03T07:28:02.623Z,51.4
2018-10-03T07:28:52.966Z,51.4
2018-10-03T07:29:42.749Z,51.6
2018-10-03T07:30:32.813Z,51.7
2018-10-03T07:31:22.873Z,51.8
2018-10-03T07:32:13.211Z,51.8
2018-10-03T07:33:53.324Z,52
2018-10-03T07:34:43.123Z,52.1
2018-10-03T07:35:33.455Z,52.3
2018-10-03T07:36:23.536Z,52.3
2018-10-03T07:37:13.298Z,52.4
2018-10-03T07:38:03.614Z,52.5
2018-10-03T07:38:53.696Z,52.6
2018-10-03T07:39:43.781Z,52.7
2018-10-03T07:40:33.560Z,52.8
2018-10-03T07:41:23.923Z,52.9
2018-10-03T07:42:13.968Z,53.1
2018-10-03T07:43:03.730Z,53.2
2018-10-03T07:43:54.177Z,53.3
2018-10-03T07:44:43.873Z,53.4
2018-10-03T07:45:33.640Z,53.5
2018-10-03T07:46:23.999Z,53.6
2018-10-03T07:47:14.041Z,53.8
2018-10-03T07:48:04.207Z,53.9
2018-10-03T07:48:54.176Z,54
2018-10-03T07:49:44.511Z,54.2
2018-10-03T07:50:34.592Z,54.3
2018-10-03T07:51:24.346Z,54.4
2018-10-03T07:52:14.423Z,54.6
2018-10-03T07:53:04.761Z,54.7
2018-10-03T07:53:54.821Z,54.8
2018-10-03T07:54:44.894Z,55
2018-10-03T07:55:34.954Z,55.1
2018-10-03T07:56:25.551Z,55.3
2018-10-03T07:57:15.145Z,55.4
2018-10-03T07:58:05.131Z,55.5
2018-10-03T07:58:55.336Z,55.6
2018-10-03T07:59:45.316Z,55.8
2018-10-03T08:00:35.336Z,55.9
2018-10-03T08:01:25.403Z,56.1
2018-10-03T08:02:15.166Z,56.2
2018-10-03T08:03:05.507Z,56.3
2018-10-03T08:03:55.576Z,56.4
2018-10-03T08:04:45.627Z,56.6
2018-10-03T08:05:35.702Z,56.7
2018-10-03T08:06:25.747Z,56.8
2018-10-03T08:07:15.562Z,56.8
2018-10-03T08:08:05.874Z,56.9
2018-10-03T08:08:55.672Z,57
2018-10-03T08:09:45.858Z,57.1
2018-10-03T08:10:36.072Z,57.2
2018-10-03T08:11:26.137Z,57.3
2018-10-03T08:12:16.195Z,57.4
2018-10-03T08:13:06.300Z,57.5
2018-10-03T08:13:56.352Z,57.6
2018-10-03T08:15:36.755Z,57.8
2018-10-03T08:16:26.503Z,58
2018-10-03T08:17:16.683Z,58.1
2018-10-03T08:18:06.632Z,58.3
2018-10-03T08:18:56.701Z,58.4
2018-10-03T08:19:46.730Z,58.5
2018-10-03T08:20:36.509Z,58.6
2018-10-03T08:21:26.872Z,58.8
2018-10-03T08:22:16.939Z,58.9
2018-10-03T08:23:06.994Z,59.1
2018-10-03T08:23:57.064Z,59.2
2018-10-03T08:24:47.132Z,59.3
2018-10-03T08:25:37.197Z,59.4
2018-10-03T08:26:27.259Z,59.6
2018-10-03T08:27:17.034Z,59.6
2018-10-03T08:28:07.375Z,59.8
2018-10-03T08:28:57.431Z,59.9
2018-10-03T08:29:47.494Z,60
2018-10-03T08:30:37.292Z,60.1
2018-10-03T08:31:27.639Z,60.3
2018-10-03T08:32:18.009Z,60.4
2018-10-03T08:33:07.988Z,60.5
2018-10-03T08:33:57.812Z,60.6
2018-10-03T08:34:47.872Z,60.8
2018-10-03T08:35:37.980Z,60.8
2018-10-03T08:36:27.714Z,60.9
2018-10-03T08:37:18.060Z,60.9
2018-10-03T08:38:08.157Z,61
2018-10-03T08:38:58.189Z,61.1
2018-10-03T08:39:48.264Z,61.3
2018-10-03T08:40:38.327Z,61.4
2018-10-03T08:41:28.477Z,61.4
2018-10-03T08:42:18.442Z,61.5
2018-10-03T08:43:08.524Z,61.6
2018-10-03T08:43:58.574Z,61.7
2018-10-03T08:44:48.621Z,61.8
2018-10-03T08:45:39.260Z,61.8
2018-10-03T08:46:28.744Z,61.9
2018-10-03T08:47:18.826Z,62
2018-10-03T08:48:08.319Z,62.1
2018-10-03T08:48:58.388Z,62.3
2018-10-03T08:49:49.015Z,62.4
2018-10-03T08:50:39.058Z,62.4
2018-10-03T08:51:28.842Z,62.5
2018-10-03T08:52:18.917Z,62.6
2018-10-03T09:08:44.246Z,63.9
2018-10-03T09:09:34.252Z,64.1
2018-10-03T09:10:23.742Z,64.2
2018-10-03T09:11:14.375Z,64.3
2018-10-03T09:12:04.439Z,64.4
2018-10-03T09:12:54.514Z,64.4
2018-10-03T09:13:44.579Z,64.5
2018-10-03T09:14:34.625Z,64.6
2018-10-03T09:15:24.680Z,64.7
2018-10-03T09:16:14.756Z,64.8
2018-10-03T09:17:04.804Z,64.8
2018-10-03T09:17:54.573Z,64.9
2018-10-03T09:18:44.974Z,65
2018-10-03T09:19:34.986Z,65.1
2018-10-03T09:20:24.761Z,65.2
2018-10-03T09:21:14.960Z,65.3
2018-10-03T09:22:05.421Z,65.3
2018-10-03T09:22:54.946Z,65.5
2018-10-03T09:23:45.297Z,65.6
2018-10-03T09:24:35.358Z,65.6
2018-10-03T09:25:25.421Z,65.7
2018-10-03T09:26:15.483Z,65.8
2018-10-03T09:27:05.553Z,65.8
2018-10-03T09:27:55.656Z,65.8
2018-10-03T09:28:45.673Z,65.9
2018-10-03T09:29:35.728Z,65.9
2018-10-03T09:30:25.231Z,65.9
2018-10-03T09:31:15.856Z,65.9
2018-10-03T09:32:05.923Z,66
2018-10-03T09:32:55.978Z,66
2018-10-03T09:33:46.043Z,66
2018-10-03T09:34:36.158Z,66.1
2018-10-03T09:35:26.434Z,66.3
2018-10-03T09:36:15.653Z,66.3
2018-10-03T09:37:06.003Z,66.4
2018-10-03T09:37:56.358Z,66.4
2018-10-03T09:38:46.442Z,66.5
2018-10-03T09:39:36.402Z,66.6
2018-10-03T09:40:26.615Z,66.6
2018-10-03T09:41:16.323Z,66.6
2018-10-03T09:42:06.663Z,66.7
2018-10-03T09:42:56.760Z,66.7
2018-10-03T09:43:46.883Z,66.6
2018-10-03T09:44:37.279Z,66.6
2018-10-03T09:45:26.893Z,66.6
2018-10-03T09:46:16.698Z,66.7
2018-10-03T09:47:07.048Z,66.8
2018-10-03T09:47:57.093Z,66.8
2018-10-03T09:48:47.159Z,66.8
2018-10-03T09:49:36.662Z,66.6
2018-10-03T09:50:26.994Z,66.5
2018-10-03T09:51:17.653Z,66.5
2018-10-03T09:52:07.405Z,66.6
2018-10-03T09:52:57.459Z,66.6
2018-10-03T09:53:47.537Z,66.7
2018-10-03T09:54:37.599Z,66.8
2018-10-03T09:55:27.659Z,66.9
2018-10-03T09:56:18.014Z,67.1
2018-10-03T09:57:07.771Z,67.1
2018-10-03T09:57:57.832Z,67.1
2018-10-03T09:58:47.898Z,66.9
2018-10-03T09:59:37.969Z,66.8
2018-10-03T10:00:28.390Z,66.8
2018-10-03T10:01:18.101Z,66.6
2018-10-03T10:02:08.154Z,66.6
2018-10-03T10:02:58.224Z,66.5
2018-10-03T10:03:48.274Z,66.5
2018-10-03T10:04:38.331Z,66.6
2018-10-03T10:05:28.396Z,66.7
2018-10-03T10:06:18.454Z,66.7
2018-10-03T10:07:08.288Z,66.6
2018-10-03T10:07:58.609Z,66.5
2018-10-03T10:08:48.649Z,66.4
2018-10-03T10:09:38.716Z,66.4
2018-10-03T10:10:28.491Z,66.5
2018-10-03T10:11:18.727Z,66.6
2018-10-03T10:12:08.895Z,66.7
2018-10-03T10:12:58.958Z,66.8
2018-10-03T10:13:49.036Z,66.8
2018-10-03T10:14:39.090Z,66.9
2018-10-03T10:15:28.883Z,67
2018-10-03T10:16:18.926Z,67.1
2018-10-03T10:17:08.985Z,67.1
2018-10-03T10:17:59.348Z,67.1
2018-10-03T10:18:49.405Z,67.3
2018-10-03T10:19:39.463Z,67.3
2018-10-03T10:20:29.243Z,67.4
2018-10-03T10:21:19.580Z,67.5
2018-10-03T10:22:09.362Z,67.6
2018-10-03T10:22:59.722Z,67.8
2018-10-03T10:23:49.763Z,67.9
2018-10-03T10:24:39.554Z,67.9
2018-10-03T10:25:29.887Z,68.1
2018-10-03T10:26:19.386Z,68.2
2018-10-03T10:27:10.019Z,68.3
2018-10-03T10:28:00.073Z,68.4
2018-10-03T10:28:49.866Z,68.6
2018-10-03T10:29:40.210Z,68.6
2018-10-03T10:30:29.971Z,68.7
2018-10-03T10:31:20.324Z,68.8
2018-10-03T10:32:10.795Z,68.9
2018-10-03T10:33:01.370Z,68.9
2018-10-03T10:33:50.509Z,68.9
2018-10-03T10:34:40.574Z,69.1
2018-10-03T10:35:30.639Z,69.1
2018-10-03T10:36:20.709Z,69.3
2018-10-03T10:37:11.124Z,69.3
2018-10-03T10:38:00.836Z,69.4
2018-10-03T10:38:50.883Z,69.4
2018-10-03T10:39:40.949Z,69.4
2018-10-03T10:40:32.084Z,69.6
2018-10-03T10:41:21.517Z,69.4
2018-10-03T10:42:10.559Z,69.3
2018-10-03T10:43:00.911Z,69.2
2018-10-03T10:43:51.258Z,69.1
2018-10-03T10:44:41.314Z,69.2
2018-10-03T10:45:31.425Z,69.4
2018-10-03T10:46:21.443Z,69.6
2018-10-03T10:47:11.505Z,69.8
2018-10-03T10:48:01.560Z,69.9
2018-10-03T10:48:51.646Z,70
2018-10-03T10:49:41.745Z,70.1
2018-10-03T10:50:32.081Z,70.1
2018-10-03T10:51:21.821Z,70.1
2018-10-03T10:52:11.608Z,70.2
2018-10-03T10:53:01.966Z,70.3
2018-10-03T10:53:52.043Z,70.3
2018-10-03T10:54:41.775Z,70.4
2018-10-03T10:55:32.135Z,70.4
2018-10-03T10:56:22.183Z,70.5
2018-10-03T10:57:11.966Z,70.6
2018-10-03T10:58:02.307Z,70.6
2018-10-03T10:58:52.368Z,70.6
2018-10-03T10:59:42.308Z,70.6
2018-10-03T11:00:32.505Z,70.5
2018-10-03T11:01:22.560Z,70.5
2018-10-03T11:02:12.629Z,70.6
2018-10-03T11:03:02.683Z,70.7
2018-10-03T11:03:52.749Z,70.8
2018-10-03T11:04:42.822Z,70.8
2018-10-03T11:05:32.869Z,70.7
2018-10-03T11:06:23.340Z,70.6
2018-10-03T11:07:12.995Z,70.7
2018-10-03T11:08:02.777Z,70.8
2018-10-03T11:08:53.127Z,70.8
2018-10-03T11:09:43.177Z,70.7
2018-10-03T11:10:33.237Z,70.7
2018-10-03T11:11:23.317Z,70.7
2018-10-03T11:12:13.369Z,70.8
2018-10-03T11:13:03.447Z,70.9
2018-10-03T11:13:53.487Z,71
2018-10-03T11:14:43.557Z,71.2
2018-10-03T11:15:33.890Z,71.3
2018-10-03T11:16:23.686Z,71.3
2018-10-03T11:17:13.742Z,71.4
2018-10-03T11:18:03.242Z,71.4
2018-10-03T11:18:53.579Z,71.4
2018-10-03T11:19:43.946Z,71.4
2018-10-03T11:20:33.999Z,71.5
2018-10-03T11:21:24.065Z,71.6
2018-10-03T11:22:13.837Z,71.7
2018-10-03T11:23:04.169Z,71.8
2018-10-03T11:23:55.559Z,71.8
2018-10-03T11:24:45.287Z,71.9
2018-10-03T11:25:34.371Z,71.9
2018-10-03T11:26:24.424Z,71.9
2018-10-03T11:27:14.221Z,72
2018-10-03T11:28:04.556Z,72.1
2018-10-03T11:28:54.763Z,72.1
2018-10-03T11:29:44.674Z,72.2
2018-10-03T11:30:34.741Z,72.2
2018-10-03T11:31:24.796Z,72.3
2018-10-03T11:32:14.949Z,72.3
2018-10-03T11:33:04.941Z,72.3
2018-10-03T11:33:54.995Z,72.4
2018-10-03T11:34:44.764Z,72.4
2018-10-03T11:35:35.123Z,72.4
2018-10-03T11:36:25.179Z,72.4
2018-10-03T11:37:15.204Z,72.5
2018-10-03T11:38:05.451Z,72.6
2018-10-03T11:38:55.357Z,72.6
2018-10-03T11:39:45.423Z,72.6
2018-10-03T11:40:35.498Z,72.6
2018-10-03T11:41:25.552Z,72.6
2018-10-03T11:42:15.620Z,72.7
2018-10-03T11:43:05.674Z,72.7
2018-10-03T11:43:56.045Z,72.7
2018-10-03T11:44:45.810Z,72.7
2018-10-03T11:45:35.573Z,72.6
2018-10-03T11:46:25.643Z,72.6
2018-10-03T11:47:15.716Z,72.6
2018-10-03T11:48:06.055Z,72.6
2018-10-03T11:48:56.117Z,72.7
2018-10-03T11:49:45.890Z,72.7
2018-10-03T11:50:36.422Z,72.7
2018-10-03T11:51:26.289Z,72.6
2018-10-03T11:52:16.355Z,72.6
2018-10-03T11:53:06.425Z,72.6
2018-10-03T11:53:56.492Z,72.6
2018-10-03T11:54:46.545Z,72.6
2018-10-03T11:55:36.602Z,72.6
2018-10-03T11:56:26.672Z,72.6
2018-10-03T11:57:16.162Z,72.6
2018-10-03T11:58:06.800Z,72.6
2018-10-03T11:58:56.859Z,72.6
2018-10-03T11:59:46.636Z,72.7
2018-10-03T12:00:36.976Z,72.7
2018-10-03T12:01:27.032Z,72.6
2018-10-03T12:02:17.106Z,72.6
2018-10-03T12:03:07.366Z,72.4
2018-10-03T12:03:57.234Z,72.4
2018-10-03T12:04:47.294Z,72.5
2018-10-03T12:05:37.356Z,72.6
2018-10-03T12:06:27.560Z,72.7
2018-10-03T12:07:17.504Z,72.8
2018-10-03T12:08:07.544Z,72.9
2018-10-03T12:08:57.331Z,72.9
2018-10-03T12:09:47.661Z,72.9
2018-10-03T12:10:37.730Z,73
2018-10-03T12:11:27.786Z,73.1
2018-10-03T12:12:17.850Z,73.1
2018-10-03T12:13:07.905Z,73.1
2018-10-03T12:13:57.970Z,73.1
2018-10-03T12:14:48.046Z,73.1
2018-10-03T12:15:37.906Z,73.1
2018-10-03T12:16:28.173Z,73
2018-10-03T12:17:18.218Z,72.9
2018-10-03T12:18:08.286Z,72.9
2018-10-03T12:18:58.596Z,72.9
2018-10-03T12:19:48.675Z,72.9
2018-10-03T12:20:38.463Z,72.8
2018-10-03T12:21:28.535Z,72.8
2018-10-03T12:22:18.593Z,72.8
2018-10-03T12:23:08.653Z,72.8
2018-10-03T12:23:58.967Z,72.8
2018-10-03T12:24:48.528Z,72.8
2018-10-03T12:25:38.573Z,72.7
2018-10-03T12:26:28.915Z,72.7
2018-10-03T12:27:18.967Z,72.7
2018-10-03T12:28:09.027Z,72.6
2018-10-03T12:28:59.097Z,72.6
2018-10-03T12:29:49.163Z,72.5
2018-10-03T12:30:39.212Z,72.4
2018-10-03T12:31:29.280Z,72.3
2018-10-03T12:32:19.349Z,72.3
2018-10-03T12:33:09.134Z,72.3
2018-10-03T12:33:59.192Z,72.3
2018-10-03T12:34:49.543Z,72.3
2018-10-03T12:35:39.589Z,72.4
2018-10-03T12:36:29.648Z,72.3
2018-10-03T12:37:19.711Z,72.3
2018-10-03T12:38:09.791Z,72.3
2018-10-03T12:38:59.839Z,72.2
2018-10-03T12:39:49.619Z,72.2
2018-10-03T12:40:39.960Z,72.2
2018-10-03T12:41:30.033Z,72.2
2018-10-03T12:42:19.809Z,72.1
2018-10-03T12:43:10.146Z,72
2018-10-03T12:44:00.203Z,71.9
2018-10-03T12:44:50.269Z,71.8
2018-10-03T12:45:40.651Z,71.6
2018-10-03T12:46:30.396Z,71.5
2018-10-03T12:47:20.178Z,71.4
2018-10-03T12:48:10.543Z,71.3